Time;durP1;ratioP1;P1;durP2;ratioP2;P2;SDS_P1;SDS_P2;PMS_P1;PMS_P2;Temp;Humidity;BMP_temperature;BMP_pressure;BME280_temperature;BME280_humidity;BME280_pressure;Samples;Min_cycle;Max_cycle;Signal;HPM_P1;HPM_P2
2022/08/07 00:00:58;;;;;;;10.00;9.38;;;;;;;19.01;45.51;101096.28;4903222;28;96873;-82
2022/08/07 00:03:25;;;;;;;9.82;9.13;;;;;;;18.98;45.62;101091.13;4874053;28;101268;-85
2022/08/07 00:05:53;;;;;;;10.63;9.93;;;;;;;18.84;45.77;101078.63;4889714;28;102182;-82
2022/08/07 00:08:21;;;;;;;10.00;9.40;;;;;;;18.91;45.80;101100.44;4907707;28;97016;-84
2022/08/07 00:10:50;;;;;;;10.50;9.65;;;;;;;18.84;45.83;101101.69;4889778;28;99007;-84
2022/08/07 00:13:17;;;;;;;10.20;9.55;;;;;;;18.74;45.86;101090.72;4892733;28;101376;-84
2022/08/07 00:15:42;;;;;;;10.32;9.52;;;;;;;18.88;45.83;101114.75;4892877;28;101322;-84
2022/08/07 00:18:08;;;;;;;10.38;9.68;;;;;;;18.78;46.24;101106.41;4909213;28;96704;-84
2022/08/07 00:20:37;;;;;;;12.98;9.50;;;;;;;18.86;46.03;101108.66;4895442;28;97090;-85
2022/08/07 00:23:05;;;;;;;10.98;9.90;;;;;;;18.75;46.10;101100.41;4890187;28;97694;-83
2022/08/07 00:25:31;;;;;;;10.77;9.95;;;;;;;18.78;46.06;101100.25;4891032;28;101400;-85
2022/08/07 00:27:56;;;;;;;10.32;9.63;;;;;;;18.72;46.21;101100.56;4889442;28;96605;-84
2022/08/07 00:30:22;;;;;;;10.23;9.50;;;;;;;18.55;46.31;101083.72;4903460;28;97558;-84
2022/08/07 00:32:49;;;;;;;10.48;9.60;;;;;;;18.57;46.57;101086.31;4908738;28;98492;-83
2022/08/07 00:35:16;;;;;;;10.43;9.50;;;;;;;18.63;46.35;101109.91;4833197;28;1192942;-84
2022/08/07 00:37:42;;;;;;;9.88;9.02;;;;;;;18.43;46.72;101073.78;4892717;28;97075;-84
2022/08/07 00:40:08;;;;;;;10.30;9.50;;;;;;;18.60;46.36;101098.56;4894086;28;97142;-84
2022/08/07 00:42:34;;;;;;;11.48;9.85;;;;;;;18.47;46.35;101078.00;4905384;28;101196;-84
2022/08/07 00:44:59;;;;;;;11.43;10.50;;;;;;;18.58;46.22;101093.34;4914308;28;101114;-84
2022/08/07 00:47:25;;;;;;;10.63;9.88;;;;;;;18.39;46.32;101066.91;4891369;28;96676;-84
2022/08/07 00:49:50;;;;;;;10.00;9.38;;;;;;;18.39;46.58;101085.53;4911346;28;97161;-84
2022/08/07 00:52:16;;;;;;;10.40;9.73;;;;;;;18.44;46.59;101098.53;4894117;28;100758;-84
2022/08/07 00:54:41;;;;;;;9.98;9.30;;;;;;;18.27;46.52;101073.75;4893690;28;101415;-85
2022/08/07 00:57:08;;;;;;;9.90;9.25;;;;;;;18.38;46.68;101086.44;4886840;28;97138;-84
2022/08/07 00:59:36;;;;;;;10.02;9.43;;;;;;;18.42;46.57;101095.13;4893895;28;96834;-84
2022/08/07 01:02:04;;;;;;;11.00;10.10;;;;;;;18.38;47.03;101093.56;4898387;28;98491;-84
2022/08/07 01:04:30;;;;;;;10.30;9.43;;;;;;;18.40;46.87;101091.69;4890867;28;99892;-84
2022/08/07 01:06:55;;;;;;;10.55;9.70;;;;;;;18.38;46.98;101097.06;4894167;28;96701;-84
2022/08/07 01:09:22;;;;;;;10.27;9.48;;;;;;;18.29;47.10;101098.44;4880779;28;97044;-84
2022/08/07 01:11:50;;;;;;;10.25;9.65;;;;;;;18.25;47.38;101086.25;4894150;28;101426;-84
2022/08/07 01:14:16;;;;;;;10.82;10.10;;;;;;;18.32;47.15;101100.06;4887128;28;100315;-84
2022/08/07 01:16:42;;;;;;;11.25;10.10;;;;;;;18.28;47.45;101101.19;4905643;28;96904;-84
2022/08/07 01:19:08;;;;;;;10.82;9.80;;;;;;;18.26;47.38;101103.91;4901541;28;96815;-84
2022/08/07 01:21:33;;;;;;;10.50;9.70;;;;;;;18.14;47.27;101078.00;4877957;28;101881;-84
2022/08/07 01:24:00;;;;;;;11.00;10.30;;;;;;;18.18;47.59;101095.53;4895795;28;101184;-84
2022/08/07 01:26:26;;;;;;;11.02;9.98;;;;;;;18.13;47.60;101100.22;4873410;28;98431;-84
2022/08/07 01:28:53;;;;;;;10.57;9.52;;;;;;;18.09;47.91;101090.66;4878041;28;96888;-84
2022/08/07 01:31:27;;;;;;;9.77;9.10;;;;;;;17.97;47.84;101075.38;4879139;28;101604;-84
2022/08/07 01:33:54;;;;;;;10.32;9.52;;;;;;;18.09;48.04;101098.63;4896943;28;100923;-84
2022/08/07 01:36:20;;;;;;;10.73;9.82;;;;;;;18.01;48.07;101096.41;4896375;28;96870;-84
2022/08/07 01:38:46;;;;;;;10.48;9.77;;;;;;;18.10;47.87;101095.91;4897179;28;96890;-84
2022/08/07 01:41:19;;;;;;;10.48;9.68;;;;;;;18.04;48.22;101098.91;4901064;28;101899;-84
2022/08/07 01:43:46;;;;;;;10.00;9.35;;;;;;;17.87;48.27;101091.81;4894599;28;101021;-84
2022/08/07 01:46:13;;;;;;;13.18;12.18;;;;;;;17.84;48.08;101085.81;4877264;28;96748;-84
2022/08/07 01:48:42;;;;;;;10.13;9.45;;;;;;;17.91;48.39;101110.25;4897247;28;96876;-84
2022/08/07 01:51:10;;;;;;;10.50;9.70;;;;;;;17.76;48.34;101085.31;4893131;28;99969;-85
2022/08/07 01:53:38;;;;;;;10.45;9.45;;;;;;;17.85;48.44;101109.63;4897023;28;98405;-84
2022/08/07 01:56:15;;;;;;;10.10;9.30;;;;;;;17.77;48.55;101111.81;4895700;28;97250;-84
2022/08/07 01:58:47;;;;;;;10.00;9.40;;;;;;;17.81;48.79;101107.22;4907783;28;96915;-84
2022/08/07 02:01:15;;;;;;;10.10;9.43;;;;;;;17.79;48.60;101109.09;4879429;28;102042;-84
2022/08/07 02:03:43;;;;;;;10.40;9.63;;;;;;;17.76;48.94;101110.06;4893778;28;98397;-84
2022/08/07 02:06:12;;;;;;;10.55;9.95;;;;;;;17.69;48.38;101106.03;4893975;28;98413;-84
2022/08/07 02:08:39;;;;;;;10.40;9.65;;;;;;;17.67;48.84;101117.66;4898883;28;97964;-84
2022/08/07 02:11:07;;;;;;;10.95;10.00;;;;;;;17.69;49.13;101123.75;4894246;28;101235;-84
2022/08/07 02:13:33;;;;;;;11.13;10.32;;;;;;;17.46;48.90;101085.94;4896364;28;98476;-84
2022/08/07 02:16:01;;;;;;;11.13;10.25;;;;;;;17.61;49.07;101110.84;4896113;28;96906;-84
2022/08/07 02:18:32;;;;;;;10.32;9.60;;;;;;;17.48;48.88;101094.69;4893015;28;97145;-84
2022/08/07 02:21:00;;;;;;;11.48;10.13;;;;;;;17.36;48.69;101074.06;4912009;28;98315;-83
2022/08/07 02:23:28;;;;;;;10.75;9.68;;;;;;;17.48;49.03;101097.34;4895850;28;101111;-84
2022/08/07 02:25:54;;;;;;;11.40;10.52;;;;;;;17.38;49.14;101093.44;4893420;28;97146;-84
2022/08/07 02:28:21;;;;;;;10.82;10.02;;;;;;;17.47;49.13;101108.91;4893911;28;97813;-84
2022/08/07 02:30:47;;;;;;;10.77;9.95;;;;;;;17.41;49.08;101118.03;4881268;28;101867;-84
2022/08/07 02:33:15;;;;;;;12.45;9.93;;;;;;;17.39;49.22;101116.38;4879004;28;101853;-84
2022/08/07 02:35:43;;;;;;;10.82;9.93;;;;;;;17.26;49.33;101102.00;4883702;28;97340;-84
2022/08/07 02:38:10;;;;;;;10.13;9.32;;;;;;;17.32;49.46;101113.19;4908294;28;97011;-84
2022/08/07 02:40:37;;;;;;;10.30;9.60;;;;;;;17.30;49.57;101117.69;4880584;28;101383;-84
2022/08/07 02:43:05;;;;;;;10.98;9.98;;;;;;;17.31;49.61;101103.50;4900180;28;101741;-84
2022/08/07 02:45:31;;;;;;;10.88;9.80;;;;;;;17.19;50.01;101093.47;4908668;28;96749;-84
2022/08/07 02:47:56;;;;;;;11.38;10.50;;;;;;;17.17;49.68;101095.38;4880400;28;96998;-84
2022/08/07 02:50:22;;;;;;;11.07;10.00;;;;;;;17.14;49.55;101096.38;4904945;28;101546;-84
2022/08/07 02:52:53;;;;;;;10.55;9.50;;;;;;;17.16;49.77;101121.03;4895481;28;101120;-84
2022/08/07 02:55:25;;;;;;;9.73;9.13;;;;;;;17.10;49.93;101102.75;4879640;28;96626;-84
2022/08/07 02:57:51;;;;;;;10.32;9.73;;;;;;;17.10;49.82;101099.25;4895731;28;97199;-84
2022/08/07 03:00:17;;;;;;;10.40;9.70;;;;;;;17.07;50.11;101102.91;4904435;28;98582;-84
2022/08/07 03:02:47;;;;;;;10.70;10.00;;;;;;;17.11;50.11;101108.94;4895620;28;100550;-84
2022/08/07 03:05:15;;;;;;;10.70;10.00;;;;;;;17.10;50.55;101107.19;4895843;28;97411;-84
2022/08/07 03:07:41;;;;;;;10.00;9.15;;;;;;;17.03;50.20;101087.22;4876411;28;96937;-84
2022/08/07 03:10:09;;;;;;;10.90;10.02;;;;;;;17.22;50.66;101119.00;4870326;28;101020;-84
2022/08/07 03:12:35;;;;;;;10.30;9.50;;;;;;;17.19;50.27;101101.44;4894243;28;100236;-84
2022/08/07 03:15:07;;;;;;;10.48;9.65;;;;;;;17.03;50.20;101096.03;4896125;28;97076;-84
2022/08/07 03:17:34;;;;;;;11.88;9.57;;;;;;;17.18;50.70;101108.53;4904443;28;96846;-84
2022/08/07 03:20:00;;;;;;;9.68;8.90;;;;;;;17.23;50.21;101107.47;4879355;28;100239;-83
2022/08/07 03:22:28;;;;;;;9.65;9.00;;;;;;;17.31;50.61;101103.50;4879606;28;101188;-84
2022/08/07 03:24:55;;;;;;;8.93;8.32;;;;;;;17.14;50.24;101087.56;4879927;28;97504;-84
2022/08/07 03:27:21;;;;;;;9.70;8.90;;;;;;;17.15;50.22;101098.09;4899580;28;96819;-84
2022/08/07 03:29:49;;;;;;;9.10;8.50;;;;;;;17.18;50.37;101113.00;4893451;28;97948;-84
2022/08/07 03:32:16;;;;;;;9.18;8.57;;;;;;;17.18;50.28;101097.06;4910489;28;101363;-84
2022/08/07 03:34:44;;;;;;;9.77;8.85;;;;;;;17.18;50.33;101086.47;4911746;28;96805;-84
2022/08/07 03:37:10;;;;;;;9.77;9.18;;;;;;;17.28;50.45;101106.31;4894716;28;96962;-84
2022/08/07 03:39:37;;;;;;;9.07;8.32;;;;;;;17.43;50.74;101131.22;4879670;28;100568;-84
2022/08/07 03:42:04;;;;;;;9.20;8.55;;;;;;;17.44;50.96;101132.94;4894107;28;101355;-84
2022/08/07 03:44:31;;;;;;;9.13;8.52;;;;;;;17.49;50.83;101132.72;4881019;28;97370;-84
2022/08/07 03:46:56;;;;;;;9.35;8.73;;;;;;;17.24;51.26;101114.50;4889979;28;97845;-84
2022/08/07 03:49:22;;;;;;;9.88;9.18;;;;;;;17.45;51.13;101134.66;4879113;28;101430;-84
2022/08/07 03:51:49;;;;;;;9.85;9.10;;;;;;;17.42;51.20;101134.78;4910593;28;100520;-84
2022/08/07 03:54:16;;;;;;;9.52;8.82;;;;;;;17.39;51.33;101135.84;4911082;28;96845;-84
2022/08/07 03:56:42;;;;;;;9.48;8.68;;;;;;;17.23;51.37;101121.59;4910419;28;96845;-84
2022/08/07 03:59:10;;;;;;;10.10;9.30;;;;;;;17.09;52.31;101127.56;4910763;28;98014;-84
2022/08/07 04:01:40;;;;;;;10.05;8.90;;;;;;;17.19;51.82;101118.25;4876460;28;101971;-84
2022/08/07 04:04:06;;;;;;;10.63;9.63;;;;;;;17.14;52.33;101125.56;4907704;28;96715;-84
2022/08/07 04:06:34;;;;;;;9.18;8.35;;;;;;;17.02;52.83;101130.59;4879135;28;96916;-83
2022/08/07 04:09:00;;;;;;;9.82;8.88;;;;;;;17.14;52.62;101125.56;4910563;28;98629;-84
2022/08/07 04:11:26;;;;;;;10.65;8.68;;;;;;;17.24;52.62;101139.22;4894036;28;101331;-84
2022/08/07 04:13:53;;;;;;;9.25;8.65;;;;;;;17.08;53.11;101130.31;4879100;28;96687;-84
2022/08/07 04:16:19;;;;;;;9.65;8.80;;;;;;;17.23;52.76;101147.28;4910481;28;96858;-84
2022/08/07 04:18:45;;;;;;;11.25;9.20;;;;;;;17.31;52.70;101134.50;4878856;28;101333;-84
2022/08/07 04:21:11;;;;;;;9.55;8.85;;;;;;;17.38;52.78;101139.41;4910453;28;98170;-84
2022/08/07 04:23:37;;;;;;;9.32;8.63;;;;;;;17.29;52.85;101113.34;4894918;28;96665;-84
2022/08/07 04:26:05;;;;;;;9.95;9.07;;;;;;;17.28;53.07;101129.31;4892868;28;96841;-84
2022/08/07 04:28:31;;;;;;;9.98;9.27;;;;;;;17.41;52.83;101123.31;4894473;28;102192;-84
2022/08/07 04:30:58;;;;;;;9.55;8.80;;;;;;;17.65;52.62;101137.16;4888525;28;101623;-84
2022/08/07 04:33:28;;;;;;;10.45;9.40;;;;;;;17.55;52.58;101103.22;4878587;28;98185;-84
2022/08/07 04:35:54;;;;;;;9.15;8.55;;;;;;;17.93;52.12;101134.94;4894810;28;96909;-84
2022/08/07 04:38:25;;;;;;;9.25;8.55;;;;;;;17.94;51.94;101112.75;4878752;28;101955;-84
2022/08/07 04:40:51;;;;;;;9.00;8.32;;;;;;;18.17;51.81;101138.94;4894489;28;101491;-84
2022/08/07 04:43:20;;;;;;;10.27;9.23;;;;;;;18.38;51.43;101136.94;4893561;28;96829;-84
2022/08/07 04:46:04;;;;;;;9.65;8.77;;;;;;;18.63;50.94;101141.81;4907250;28;96926;-84
2022/08/07 04:48:50;;;;;;;9.63;8.93;;;;;;;18.82;50.70;101146.13;4873395;28;102373;-84
2022/08/07 04:51:26;;;;;;;9.90;8.95;;;;;;;18.90;50.30;101125.28;4910146;28;101379;-84
2022/08/07 04:54:01;;;;;;;9.45;8.40;;;;;;;19.12;49.49;101132.94;4894753;28;96870;-84
2022/08/07 04:56:30;;;;;;;9.73;9.02;;;;;;;19.37;49.35;101146.56;4877770;28;96765;-84
2022/08/07 04:59:02;;;;;;;9.90;8.82;;;;;;;19.60;49.07;101144.34;4909179;28;101008;-85
2022/08/07 05:01:36;;;;;;;9.55;8.85;;;;;;;19.83;48.72;101153.66;4893604;28;101036;-84
2022/08/07 05:04:09;;;;;;;10.05;9.15;;;;;;;19.88;48.51;101127.63;4911193;28;96749;-82
2022/08/07 05:06:57;;;;;;;10.35;9.38;;;;;;;20.06;48.08;101150.47;4896535;28;96967;-85
2022/08/07 05:09:49;;;;;;;9.65;8.85;;;;;;;20.28;47.95;101159.84;4896362;28;101585;-85
2022/08/07 05:12:22;;;;;;;9.93;8.90;;;;;;;20.37;47.85;101143.28;4881954;28;101855;-82
2022/08/07 05:14:50;;;;;;;9.40;8.70;;;;;;;20.54;47.28;101131.59;4881731;28;97404;-83
2022/08/07 05:17:18;;;;;;;9.18;8.40;;;;;;;20.67;46.21;101158.34;4897484;28;96921;-83
2022/08/07 05:19:46;;;;;;;10.13;9.43;;;;;;;20.85;46.83;101146.47;4909108;28;101288;-85
2022/08/07 05:22:15;;;;;;;9.48;8.68;;;;;;;21.13;46.86;101161.59;4873339;28;101630;-84
2022/08/07 05:24:42;;;;;;;9.18;8.48;;;;;;;21.16;46.26;101141.84;4893797;28;97334;-83
2022/08/07 05:27:12;;;;;;;10.40;9.15;;;;;;;21.44;46.10;101149.78;4896881;28;97693;-83
2022/08/07 05:29:40;;;;;;;9.88;9.15;;;;;;;21.68;46.19;101157.97;4880420;28;100059;-83
2022/08/07 05:32:06;;;;;;;9.80;9.13;;;;;;;21.93;45.32;101153.59;4897212;28;98206;-85
2022/08/07 05:34:34;;;;;;;9.60;8.90;;;;;;;22.20;44.80;101155.38;4897114;28;96795;-84
2022/08/07 05:37:00;;;;;;;10.32;9.32;;;;;;;22.60;44.26;101150.72;4897432;28;97195;-83
2022/08/07 05:39:30;;;;;;;10.02;9.23;;;;;;;22.98;43.14;101139.09;4891111;28;102024;-84
2022/08/07 05:41:59;;;;;;;9.85;9.20;;;;;;;23.92;42.02;101144.53;4896564;28;101552;-83
2022/08/07 05:44:27;;;;;;;11.05;9.25;;;;;;;24.90;39.85;101151.16;4885726;28;96698;-83
2022/08/07 05:46:53;;;;;;;9.80;9.10;;;;;;;26.12;38.01;101143.63;4896180;28;96892;-84
2022/08/07 05:49:23;;;;;;;9.85;9.23;;;;;;;27.29;36.07;101153.00;4896669;28;101276;-84
2022/08/07 05:51:50;;;;;;;10.00;9.30;;;;;;;28.31;34.47;101138.97;4890390;28;102083;-84
2022/08/07 05:54:19;;;;;;;10.43;9.73;;;;;;;29.56;32.58;101152.75;4893799;28;97238;-84
2022/08/07 05:56:46;;;;;;;10.88;10.05;;;;;;;30.65;30.51;101146.03;4896404;28;96887;-85
2022/08/07 05:59:16;;;;;;;10.25;9.43;;;;;;;30.98;29.59;101128.06;4896175;28;101481;-83
2022/08/07 06:01:44;;;;;;;10.35;9.55;;;;;;;31.39;28.75;101154.41;4912002;28;101390;-85
2022/08/07 06:04:10;;;;;;;10.48;9.65;;;;;;;31.63;28.42;101151.72;4880539;28;97086;-87
2022/08/07 06:06:39;;;;;;;10.43;9.73;;;;;;;32.69;27.39;101153.38;4897213;28;96777;-87
2022/08/07 06:09:07;;;;;;;10.32;9.60;;;;;;;33.25;25.93;101145.97;4897202;28;99816;-87
2022/08/07 06:11:38;;;;;;;10.30;9.65;;;;;;;33.36;25.90;101150.97;4911343;28;101778;-87
2022/08/07 06:14:04;;;;;;;9.90;9.20;;;;;;;33.17;26.20;101153.34;4896388;28;97572;-88
2022/08/07 06:16:32;;;;;;;10.18;9.48;;;;;;;33.87;24.86;101149.56;4889147;28;97408;-87
2022/08/07 06:19:00;;;;;;;10.27;9.63;;;;;;;34.69;24.46;101130.44;4881203;28;101787;-88
2022/08/07 06:21:27;;;;;;;10.43;9.65;;;;;;;34.55;24.82;101132.16;4898995;28;101450;-86
2022/08/07 06:23:52;;;;;;;10.10;9.48;;;;;;;35.25;24.21;101138.03;4893178;28;96869;-87
2022/08/07 06:26:19;;;;;;;10.30;9.50;;;;;;;36.37;23.47;101140.00;4897450;28;96970;-87
2022/08/07 06:28:56;;;;;;;10.05;9.43;;;;;;;36.14;22.22;101143.00;4891278;28;101849;-87
2022/08/07 06:31:24;;;;;;;10.65;9.85;;;;;;;36.58;22.45;101139.91;4881024;28;101395;-86
2022/08/07 06:33:51;;;;;;;10.68;9.88;;;;;;;36.82;21.95;101146.72;4881347;28;96780;-88
2022/08/07 06:36:17;;;;;;;10.38;9.57;;;;;;;37.60;21.79;101152.59;4880004;28;96912;-87
2022/08/07 06:38:48;;;;;;;10.52;9.63;;;;;;;37.99;21.67;101141.84;4881718;28;101814;-87
2022/08/07 06:41:38;;;;;;;9.73;9.05;;;;;;;37.92;21.12;101160.19;4880409;28;101790;-88
2022/08/07 06:44:04;;;;;;;10.18;9.38;;;;;;;38.47;21.19;101152.53;4895741;28;96789;-87
2022/08/07 06:46:32;;;;;;;11.02;10.02;;;;;;;38.37;20.83;101141.13;4888113;28;96884;-87
2022/08/07 06:48:59;;;;;;;10.27;9.68;;;;;;;38.22;21.37;101144.13;4896518;28;101343;-88
2022/08/07 06:51:28;;;;;;;10.55;9.43;;;;;;;38.14;21.03;101134.25;4898761;28;101295;-87
2022/08/07 06:53:55;;;;;;;9.88;9.23;;;;;;;38.71;21.10;101161.91;4893176;28;96804;-87
2022/08/07 06:56:38;;;;;;;9.70;9.00;;;;;;;39.02;20.35;101147.44;4896111;28;97149;-87
2022/08/07 06:59:07;;;;;;;10.70;9.88;;;;;;;39.77;20.39;101143.97;4898988;28;99794;-87
2022/08/07 07:01:35;;;;;;;11.48;10.68;;;;;;;39.97;20.10;101138.25;4897948;28;101718;-88
2022/08/07 07:04:03;;;;;;;10.38;9.57;;;;;;;39.63;20.13;101137.72;4892034;28;96717;-87
2022/08/07 07:06:30;;;;;;;10.25;9.60;;;;;;;39.77;19.79;101142.06;4911583;28;96881;-87
2022/08/07 07:08:56;;;;;;;10.65;9.93;;;;;;;41.04;19.17;101141.41;4902904;28;100500;-88
2022/08/07 07:11:21;;;;;;;10.50;9.80;;;;;;;40.57;19.58;101123.88;4881067;28;100860;-88
2022/08/07 07:13:50;;;;;;;10.38;9.77;;;;;;;40.28;19.18;101140.06;4880024;28;96692;-88
2022/08/07 07:16:18;;;;;;;10.85;10.02;;;;;;;40.81;19.21;101139.41;4892667;28;97055;-88
2022/08/07 07:18:48;;;;;;;10.65;9.90;;;;;;;40.60;19.13;101137.16;4895867;28;100928;-88
2022/08/07 07:21:21;;;;;;;11.07;10.38;;;;;;;41.02;19.04;101131.72;4909525;28;98031;-87
2022/08/07 07:23:47;;;;;;;10.88;10.18;;;;;;;41.25;18.98;101122.72;4892839;28;96778;-88
2022/08/07 07:26:16;;;;;;;11.38;10.68;;;;;;;42.33;18.43;101128.88;4892171;28;96959;-88
2022/08/07 07:28:47;;;;;;;9.68;9.00;;;;;;;41.90;18.44;101119.94;4911008;28;99098;-88
2022/08/07 07:31:18;;;;;;;10.35;9.45;;;;;;;42.10;18.39;101133.34;4911169;28;98083;-88
2022/08/07 07:33:45;;;;;;;9.85;9.23;;;;;;;41.88;18.29;101126.75;4911621;28;97174;-89
2022/08/07 07:36:11;;;;;;;10.25;9.55;;;;;;;42.98;17.77;101111.16;4902583;28;97217;-88
2022/08/07 07:38:37;;;;;;;10.13;9.43;;;;;;;41.69;17.79;101126.03;4907934;28;97756;-89
2022/08/07 07:41:06;;;;;;;9.52;8.93;;;;;;;41.87;17.74;101111.31;4892716;28;96735;-88
2022/08/07 07:43:33;;;;;;;9.68;9.07;;;;;;;41.74;18.18;101117.88;4888396;28;97225;-88
2022/08/07 07:45:59;;;;;;;10.57;9.88;;;;;;;42.06;18.44;101119.19;4912385;28;96824;-88
2022/08/07 07:48:25;;;;;;;10.43;9.68;;;;;;;41.31;17.92;101116.25;4900914;28;101675;-88
2022/08/07 07:50:52;;;;;;;11.02;10.07;;;;;;;40.56;18.84;101106.53;4910955;28;98251;-88
2022/08/07 07:53:19;;;;;;;10.18;9.38;;;;;;;39.67;19.71;101110.63;4894542;28;96776;-89
2022/08/07 07:55:44;;;;;;;10.30;9.50;;;;;;;40.37;18.93;101091.94;4911125;28;96798;-87
2022/08/07 07:58:10;;;;;;;10.23;9.63;;;;;;;41.65;18.70;101094.53;4910985;28;97925;-87
2022/08/07 08:00:36;;;;;;;10.55;9.85;;;;;;;41.37;16.98;101112.56;4876961;28;101569;-88
2022/08/07 08:03:05;;;;;;;10.38;9.77;;;;;;;41.01;17.80;101106.09;4894969;28;96738;-88
2022/08/07 08:05:30;;;;;;;;;;;;;;;40.78;17.90;101117.88;4892410;28;96828;-87
2022/08/07 08:07:56;;;;;;;11.40;9.77;;;;;;;40.54;18.19;101102.31;4894505;28;104099;-89
2022/08/07 08:10:21;;;;;;;11.57;10.88;;;;;;;41.20;17.01;101108.84;4895998;28;97363;-88
2022/08/07 08:12:47;;;;;;;12.18;11.13;;;;;;;40.08;17.73;101111.94;4910496;28;96791;-88
2022/08/07 08:15:13;;;;;;;11.50;10.68;;;;;;;39.55;18.15;101113.28;4898554;28;96742;-88
2022/08/07 08:17:40;;;;;;;10.88;10.18;;;;;;;39.28;18.98;101107.97;4889715;28;100960;-88
2022/08/07 08:20:07;;;;;;;10.73;10.13;;;;;;;39.26;18.49;101090.06;4895331;28;97853;-86
2022/08/07 08:28:30;;;;;;;11.52;10.82;;;;;;;39.10;19.56;101106.00;4888790;28;98030;-87
2022/08/07 08:30:59;;;;;;;11.43;10.63;;;;;;;39.70;19.52;101113.75;4891775;28;100966;-87
2022/08/07 08:33:28;;;;;;;11.07;10.38;;;;;;;37.62;20.61;101113.22;4910470;28;96823;-85
2022/08/07 08:35:54;;;;;;;;;;;;;;;34.11;23.58;101110.38;4900267;28;96939;-87
2022/08/07 08:38:22;;;;;;;11.38;10.57;;;;;;;37.74;20.32;101100.56;4894857;28;97547;-87
2022/08/07 08:41:07;;;;;;;10.57;9.87;;;;;;;36.58;20.81;101115.31;4891393;28;97174;-87
2022/08/07 08:43:37;;;;;;;11.10;10.50;;;;;;;35.82;21.72;101102.44;4908933;28;96934;-87
2022/08/07 08:46:10;;;;;;;10.48;9.88;;;;;;;33.52;23.78;101102.94;4899371;28;99233;-87
2022/08/07 08:48:43;;;;;;;10.95;10.00;;;;;;;32.83;24.09;101125.47;4892307;28;101799;-87
2022/08/07 08:51:37;;;;;;;10.30;9.60;;;;;;;36.30;20.91;101117.22;4898346;28;98459;-87
2022/08/07 08:54:07;;;;;;;11.95;9.85;;;;;;;38.04;19.39;101109.19;4892199;28;96831;-87
2022/08/07 08:56:37;;;;;;;10.68;9.70;;;;;;;33.24;24.21;101118.94;4887737;28;96817;-86
2022/08/07 08:59:06;;;;;;;10.80;10.10;;;;;;;36.00;22.10;101117.47;4898237;28;97667;-87
2022/08/07 09:01:33;;;;;;;10.82;10.13;;;;;;;37.50;20.70;101113.88;4897084;28;99587;-87
2022/08/07 09:04:07;;;;;;;10.80;10.05;;;;;;;38.69;17.91;101101.81;4898318;28;96726;-88
2022/08/07 09:06:57;;;;;;;10.73;10.13;;;;;;;38.52;17.88;101110.72;4881142;28;96754;-87
2022/08/07 09:09:53;;;;;;;11.00;10.30;;;;;;;39.24;17.94;101114.97;4913693;28;98143;-87
2022/08/07 09:12:34;;;;;;;11.57;10.77;;;;;;;39.12;16.99;101114.00;4893411;28;101480;-87
2022/08/07 09:15:32;;;;;;;11.20;10.10;;;;;;;36.39;19.44;101094.16;4899155;28;96965;-87
2022/08/07 09:18:00;;;;;;;10.48;9.85;;;;;;;36.70;19.13;101108.19;4912089;28;96709;-87
2022/08/07 09:20:34;;;;;;;10.50;9.73;;;;;;;37.67;17.47;101113.41;4915008;28;97368;-87
2022/08/07 09:23:03;;;;;;;10.60;9.80;;;;;;;36.17;18.11;101098.91;4893825;28;97483;-87
2022/08/07 09:26:09;;;;;;;11.02;10.32;;;;;;;37.14;18.46;101101.38;4903788;28;97032;-87
2022/08/07 09:28:38;;;;;;;10.45;9.85;;;;;;;37.95;18.35;101092.13;4898570;28;96697;-87
2022/08/07 09:31:09;;;;;;;;;;;;;;;38.04;17.05;101092.75;4892108;28;101218;-87
2022/08/07 09:33:56;;;;;;;11.00;10.23;;;;;;;36.70;17.14;101094.50;4896570;28;100333;-87
2022/08/07 09:36:34;;;;;;;11.07;10.48;;;;;;;35.47;18.44;101082.41;4913704;28;96815;-88
2022/08/07 09:39:24;;;;;;;10.77;10.18;;;;;;;35.46;18.37;101094.38;4894600;28;96777;-86
2022/08/07 09:41:56;;;;;;;9.75;9.25;;;;;;;34.63;18.64;101091.19;4875968;28;100123;-87
2022/08/07 09:44:31;;;;;;;10.35;9.75;;;;;;;34.44;19.84;101081.69;4882262;28;99765;-87
2022/08/07 09:47:02;;;;;;;9.93;9.32;;;;;;;34.81;19.34;101085.28;4907963;28;96850;-87
2022/08/07 09:49:33;;;;;;;9.45;8.90;;;;;;;33.84;20.06;101074.56;4897103;28;96732;-87
2022/08/07 09:52:16;;;;;;;10.38;9.60;;;;;;;33.75;19.96;101081.97;4896738;28;97556;-86
2022/08/07 09:55:03;;;;;;;9.25;8.65;;;;;;;33.37;20.65;101078.38;4898506;28;98684;-87
2022/08/07 09:57:49;;;;;;;10.20;9.15;;;;;;;32.98;20.54;101083.91;4912128;28;96612;-86
2022/08/07 10:00:19;;;;;;;10.20;9.60;;;;;;;32.63;21.56;101076.13;4913207;28;96784;-87
2022/08/07 10:02:48;;;;;;;8.80;8.20;;;;;;;32.42;22.24;101075.88;4895112;28;98043;-87
2022/08/07 10:05:30;;;;;;;9.35;8.50;;;;;;;32.79;21.63;101079.81;4913396;28;97922;-86
2022/08/07 10:08:20;;;;;;;9.73;8.93;;;;;;;32.75;21.58;101079.28;4911966;28;96909;-86
2022/08/07 10:11:16;;;;;;;9.43;8.82;;;;;;;32.63;21.99;101067.97;4912349;28;96733;-86
2022/08/07 10:13:49;;;;;;;9.05;8.50;;;;;;;32.54;21.18;101063.63;4913755;28;98144;-87
2022/08/07 10:16:33;;;;;;;9.05;8.25;;;;;;;32.34;21.49;101063.19;4877351;28;101453;-87
2022/08/07 10:19:13;;;;;;;8.63;8.02;;;;;;;32.00;22.47;101063.50;4907800;28;96624;-87
2022/08/07 10:21:48;;;;;;;8.35;7.85;;;;;;;31.71;22.52;101056.75;4913405;28;96723;-86
2022/08/07 10:24:44;;;;;;;9.48;8.85;;;;;;;31.71;22.50;101048.59;4913446;28;97454;-86
2022/08/07 10:27:25;;;;;;;8.50;8.00;;;;;;;31.29;22.53;101048.78;4899749;28;99916;-86
2022/08/07 10:30:10;;;;;;;9.43;8.60;;;;;;;30.77;23.59;101047.19;4910184;28;97378;-86
2022/08/07 10:32:57;;;;;;;9.60;8.65;;;;;;;30.85;24.15;101046.38;4901899;28;96848;-87
2022/08/07 10:35:41;;;;;;;9.18;8.68;;;;;;;30.31;24.37;101044.03;4899829;28;101445;-86
2022/08/07 10:38:23;;;;;;;9.40;8.82;;;;;;;29.05;25.65;101051.56;4912159;28;97760;-87
2022/08/07 10:41:00;;;;;;;9.98;9.38;;;;;;;28.69;26.49;101047.16;4895787;28;98511;-86
2022/08/07 10:43:33;;;;;;;8.65;8.15;;;;;;;28.80;26.60;101038.81;4896063;28;96952;-86
2022/08/07 10:46:11;;;;;;;8.90;8.18;;;;;;;28.79;25.33;101045.22;4880264;28;101416;-85
2022/08/07 10:48:59;;;;;;;9.40;8.80;;;;;;;28.62;26.73;101036.94;4903889;28;101074;-85
2022/08/07 10:51:33;;;;;;;8.77;8.25;;;;;;;28.27;27.02;101026.88;4913166;28;97784;-84
2022/08/07 10:54:22;;;;;;;8.82;8.02;;;;;;;28.40;27.87;101034.63;4896064;28;96870;-84
2022/08/07 10:57:19;;;;;;;8.15;7.55;;;;;;;28.31;26.49;101031.00;4891866;28;98045;-85
2022/08/07 10:59:45;;;;;;;8.13;7.63;;;;;;;27.99;27.02;101026.03;4900159;28;101467;-84
2022/08/07 11:02:22;;;;;;;8.10;7.60;;;;;;;28.03;28.15;101024.72;4913211;28;97666;-84
2022/08/07 11:05:06;;;;;;;8.20;7.70;;;;;;;28.19;28.64;101019.53;4896201;28;96844;-85
2022/08/07 11:07:50;;;;;;;8.82;8.02;;;;;;;28.02;27.59;101014.09;4907798;28;99614;-85
2022/08/07 11:10:25;;;;;;;8.70;8.10;;;;;;;27.38;27.50;101027.31;4911686;28;101483;-84
2022/08/07 11:13:01;;;;;;;8.50;8.00;;;;;;;27.07;28.15;101029.28;4906160;28;96775;-84
2022/08/07 11:15:31;;;;;;;8.25;7.68;;;;;;;27.08;28.09;101033.66;4904761;28;96886;-85
2022/08/07 11:17:59;;;;;;;7.88;7.28;;;;;;;26.94;28.38;101026.88;4894442;28;98086;-84
2022/08/07 11:20:41;;;;;;;7.80;7.40;;;;;;;26.91;28.57;101007.44;4895195;28;100836;-85
2022/08/07 11:23:20;;;;;;;8.32;7.82;;;;;;;26.91;28.81;101016.38;4891451;28;98123;-84
2022/08/07 11:25:52;;;;;;;8.35;7.85;;;;;;;27.19;29.13;101013.84;4911360;28;96700;-83
2022/08/07 11:28:33;;;;;;;8.88;8.18;;;;;;;27.15;28.45;101009.72;4895724;28;97485;-84
2022/08/07 11:31:44;;;;;;;9.10;8.40;;;;;;;27.03;27.57;101011.72;4901906;28;97906;-84
2022/08/07 11:34:18;;;;;;;7.85;7.35;;;;;;;26.69;28.43;100968.19;4883549;28;97210;-84
2022/08/07 11:36:55;;;;;;;8.30;7.80;;;;;;;26.61;27.77;100996.63;4876664;28;97081;-85
2022/08/07 11:39:58;;;;;;;8.90;8.20;;;;;;;26.64;28.84;101008.97;4911607;28;98069;-84